Townsend, MT

9:37 PM MDT on August 30, 2014 (GMT -0600)
Gallatin | Change Station
CLOSE
Current Station
Airport
Location: Bozeman,
Elevation: 4475 ft
Nearby Weather Stations

Elev 4475 ft 45.79 °N, 111.16 °W | Updated 41 minutes ago

Mostly Cloudy
Mostly Cloudy
54 °F
Feels Like 54 °F
N
6
Wind Variable Wind from SSE

Today
High -- | Low -- °F
--% Chance of Precip.
Yesterday
High -- | Low -- °F
Precip. -- in
6:43 AM 8:08 PM
Waxing Crescent, 27% visible
Pressure 29.85 in
Visibility 10.0 miles
Clouds Mostly Cloudy 7000 ft
Mostly Cloudy 9000 ft
Dew Point 51 °F
Humidity 90%
Rainfall 0.49 in
Snow Depth 1 in
UV 0 out of 12
Pollen 6.80 out of 12
Air Quality Not available.
Flu Activity Not available.
METAR KBZN 310256Z 15005KT 10SM BKN070 BKN090 12/11 A2990 RMK AO2 SLP106 60001 T01220106 51001

More Conditions Fewer Conditions

Pressure 29.85 in
Visibility 10.0 miles
Clouds Mostly Cloudy 7000 ft
Mostly Cloudy 9000 ft
Dew Point 51 °F
Humidity 90%
Rainfall 0.49 in
Snow Depth 1 in
UV 0 out of 12
Pollen 6.80 out of 12
Air Quality Not available.
Flu Activity Not available.
METAR KBZN 310256Z 15005KT 10SM BKN070 BKN090 12/11 A2990 RMK AO2 SLP106 60001 T01220106 51001

More Conditions Fewer Conditions

10-Day Weather Forecast

Almanac

Astronomy

Aug. 30, 2014 Rise Set
Actual Time 6:43 AM MDT 8:08 PM MDT
Civil Twilight 6:12 AM MDT 8:39 PM MDT
Nautical Twilight 5:34 AM MDT 9:17 PM MDT
Astronomical Twilight 4:54 AM MDT 9:57 PM MDT
Moon 11:53 AM MDT (8/30) 10:25 PM MDT (8/30)
Length of Visible Light 14h 26m
Length of Day
13h 24m
Tomorrow will be 3m 9s shorter.
Waxing Crescent, 27% of the Moon is Illuminated
Today
Waxing Crescent
Sep 2
First Quarter
Sep 8
Full
Sep 15
Last Quarter
Sep 24
New

Today's Extremes

State Highs State Lows

Community

WunderPhotos

Upload Photos

1,748,772 photos uploaded!

Nearby

Snow Depth

Station Depth Elevation
Tizer Basin 1 in 6840 ft
Pickfoot Creek 0 in 6650 ft
Brackett Creek 1 in 7320 ft
Sacajawea 0 in 6550 ft
Onion Park 0 in 7410 ft

Earthquake Activity

City Distance Mag. Time & Date
No recent earthquake activity has been reported nearby.
Minimum magnitude displayed is 2.5.

Coastal Water Temperatures

Place Temperature
No Stations Reporting

Nearby Weather Stations